Tuesday, January 16, 2018, 12:26 PM EST
Back to Local

KMTN, Baltimore / Martin

Location: Middle River, MD, United States Lat: 39.333
Local Time: 12:26 PM EST (17:26 GMT) Lon: -76.417
Time Zone: US/Eastern Elev: 22 ft

Show me the last for .
Show Decoded

2018-01-16 11:45 METAR KMTN 161645Z 00000KT 10SM OVC011 02/00 A3047 =
2018-01-16 10:45 METAR KMTN 161545Z 00000KT 7SM OVC013 01/M01 A3050 =
2018-01-16 09:45 METAR KMTN 161445Z 00000KT 5SM BR OVC013 00/M01 A3051 =
2018-01-16 08:45 METAR KMTN 161345Z 00000KT 4SM BR OVC011 M01/M01 A3051 =
2018-01-16 07:45 METAR KMTN 161245Z COR 00000KT 3SM BR OVC009 M01/M01 A3050 =
2018-01-16 06:45 METAR KMTN 161145Z 00000KT 3SM BR OVC007 M01/M01 A3050 =
2018-01-16 05:45 METAR KMTN 161045Z 00000KT 4SM BR OVC005 M01/M01 A3049 RMK FIRST =
2018-01-16 05:39 METAR KMTN 161039Z AUTO 00000KT 5SM BR OVC005 M01/M01 A3049 RMK AO2 =
2018-01-16 05:24 METAR KMTN 161024Z AUTO 00000KT 4SM BR OVC007 M01/M01 A3050 RMK AO2 =
2018-01-16 05:03 METAR KMTN 161003Z AUTO 00000KT 4SM BR OVC007 M01/M01 A3049 RMK AO2 =
2018-01-16 04:42 METAR KMTN 160942Z AUTO 00000KT 5SM BR OVC007 M01/M01 A3048 RMK AO2 =
2018-01-16 04:24 METAR KMTN 160924Z AUTO 00000KT 7SM OVC007 M01/M01 A3048 RMK AO2 =
2018-01-16 04:03 METAR KMTN 160903Z AUTO 00000KT 7SM OVC007 M01/M02 A3048 RMK AO2 =
2018-01-16 03:42 METAR KMTN 160842Z AUTO 00000KT 5SM BR OVC007 M01/M02 A3049 RMK AO2 =
2018-01-16 03:24 METAR KMTN 160824Z AUTO 00000KT 7SM OVC009 M01/M02 A3049 RMK AO2 =
2018-01-16 03:03 METAR KMTN 160803Z AUTO 00000KT 10SM OVC009 00/M03 A3049 RMK AO2 =
2018-01-16 02:42 METAR KMTN 160742Z AUTO 00000KT 10SM OVC009 M01/M03 A3049 RMK AO2 =
2018-01-16 02:24 METAR KMTN 160724Z AUTO 00000KT 10SM OVC009 M01/M03 A3048 RMK AO2 =
2018-01-16 02:03 METAR KMTN 160703Z AUTO 00000KT 10SM OVC009 M01/M03 A3049 RMK AO2 =
2018-01-16 01:42 METAR KMTN 160642Z AUTO 00000KT 10SM OVC011 M01/M04 A3049 RMK AO2 =
2018-01-16 01:24 METAR KMTN 160624Z AUTO 00000KT 10SM OVC011 M01/M04 A3049 RMK AO2 =
2018-01-16 01:03 METAR KMTN 160603Z AUTO 00000KT 10SM OVC011 M01/M04 A3049 RMK AO2 =
2018-01-16 00:42 METAR KMTN 160542Z AUTO 00000KT 10SM OVC011 M01/M05 A3049 RMK AO2 =
2018-01-16 00:24 METAR KMTN 160524Z AUTO 30003KT 10SM OVC013 M01/M05 A3050 RMK AO2 =
2018-01-16 00:03 METAR KMTN 160503Z AUTO 30003KT 10SM OVC013 M01/M05 A3051 RMK AO2 =
2018-01-15 23:42 METAR KMTN 160442Z AUTO 29004KT 10SM OVC015 M01/M04 A3051 RMK AO2 =
2018-01-15 23:24 METAR KMTN 160424Z AUTO 28004KT 10SM OVC015 M01/M04 A3052 RMK AO2 =
2018-01-15 23:03 METAR KMTN 160403Z AUTO 00000KT 10SM OVC017 M01/M05 A3051 RMK AO2 =
2018-01-15 22:42 METAR KMTN 160342Z AUTO 00000KT 10SM OVC017 M01/M05 A3051 RMK AO2 =
2018-01-15 22:24 METAR KMTN 160324Z AUTO 00000KT 10SM OVC019 M01/M04 A3051 RMK AO2 =
2018-01-15 21:50 METAR KMTN 160250Z 00000KT 10SM OVC019 M02/M05 A3052 RMK LAST =
2018-01-15 20:45 METAR KMTN 160145Z 00000KT 10SM OVC019 M03/M05 A3052 =
2018-01-15 19:45 METAR KMTN 160045Z 00000KT 10SM OVC021 M03/M06 A3051 =
2018-01-15 18:45 METAR KMTN 152345Z 00000KT 10SM SCT021 BKN032 M02/M06 A3052 =
2018-01-15 17:45 METAR KMTN 152245Z 31003KT 10SM BKN021 OVC030 M02/M06 A3053 =
2018-01-15 16:45 METAR KMTN 152145Z 00000KT 10SM SCT020 BKN030 M02/M06 A3052 =
2018-01-15 15:45 METAR KMTN 152045Z 34003KT 10SM BKN020 M02/M06 A3051 =
2018-01-15 14:45 METAR KMTN 151945Z 00000KT 10SM OVC019 M02/M06 A3052 =
2018-01-15 13:45 METAR KMTN 151845Z 00000KT 10SM OVC019 M02/M07 A3053 =
2018-01-15 12:45 METAR KMTN 151745Z 00000KT 10SM OVC019 M02/M07 A3056 =

Support USWX by starting your Amazon purchase here.